Time;durP1;ratioP1;P1;durP2;ratioP2;P2;SDS_P1;SDS_P2;PMS_P1;PMS_P2;Temp;Humidity;BMP_temperature;BMP_pressure;BME280_temperature;BME280_humidity;BME280_pressure;Samples;Min_cycle;Max_cycle;Signal;HPM_P1;HPM_P2
2023/03/19 00:01:56;;;;;;;17.95;10.10;;;;;;;;;;4993594;28;20433;-59
2023/03/19 00:04:32;;;;;;;14.18;9.65;;;;;;;;;;4993420;28;20062;-59
2023/03/19 00:07:00;;;;;;;18.63;10.60;;;;;;;;;;4993361;28;20102;-58
2023/03/19 00:09:28;;;;;;;16.08;10.23;;;;;;;;;;4993312;28;20464;-59
2023/03/19 00:11:55;;;;;;;14.75;9.73;;;;;;;;;;4993248;28;20042;-59
2023/03/19 00:14:23;;;;;;;15.15;9.73;;;;;;;;;;4993355;28;20126;-59
2023/03/19 00:16:51;;;;;;;17.42;11.38;;;;;;;;;;4993232;28;20049;-59
2023/03/19 00:19:18;;;;;;;18.25;11.10;;;;;;;;;;4992115;28;20181;-59
2023/03/19 00:21:46;;;;;;;17.30;10.85;;;;;;;;;;4993177;28;20057;-59
2023/03/19 00:24:15;;;;;;;17.63;10.20;;;;;;;;;;4993258;28;20054;-59
2023/03/19 00:26:42;;;;;;;18.73;11.98;;;;;;;;;;4993260;28;20042;-59
2023/03/19 00:29:10;;;;;;;16.10;11.00;;;;;;;;;;4993291;28;20101;-59
2023/03/19 00:31:38;;;;;;;16.88;10.27;;;;;;;;;;4991833;28;20523;-59
2023/03/19 00:34:06;;;;;;;16.23;10.75;;;;;;;;;;4975701;28;20050;-59
2023/03/19 00:36:34;;;;;;;18.80;11.07;;;;;;;;;;4991797;28;20046;-59
2023/03/19 00:39:02;;;;;;;16.38;10.85;;;;;;;;;;4975600;28;20046;-59
2023/03/19 00:41:30;;;;;;;16.85;10.98;;;;;;;;;;4991762;28;20077;-59
2023/03/19 00:43:58;;;;;;;18.80;11.88;;;;;;;;;;4993026;28;20054;-59
2023/03/19 00:46:28;;;;;;;20.35;11.75;;;;;;;;;;4991607;28;20047;-60
2023/03/19 00:48:55;;;;;;;18.88;11.90;;;;;;;;;;4975464;28;20492;-59
2023/03/19 00:51:24;;;;;;;18.92;12.00;;;;;;;;;;4992996;28;20093;-59
2023/03/19 00:53:52;;;;;;;22.48;13.05;;;;;;;;;;4975524;28;20396;-59
2023/03/19 00:56:20;;;;;;;25.15;14.20;;;;;;;;;;4995037;28;20125;-59
2023/03/19 00:58:47;;;;;;;21.58;12.98;;;;;;;;;;4996505;28;20448;-59
2023/03/19 01:01:16;;;;;;;20.63;11.90;;;;;;;;;;4978963;28;20066;-59
2023/03/19 01:03:44;;;;;;;21.60;12.82;;;;;;;;;;4996542;28;20078;-59
2023/03/19 01:06:12;;;;;;;20.00;12.18;;;;;;;;;;4996443;28;20046;-59
2023/03/19 01:08:40;;;;;;;24.05;13.50;;;;;;;;;;4996420;28;20042;-59
2023/03/19 01:11:13;;;;;;;22.75;13.05;;;;;;;;;;4996367;28;20043;-59
2023/03/19 01:13:41;;;;;;;22.60;13.50;;;;;;;;;;4996286;28;20073;-59
2023/03/19 01:16:09;;;;;;;24.85;14.05;;;;;;;;;;4994877;28;20042;-63
2023/03/19 01:18:37;;;;;;;26.67;14.70;;;;;;;;;;4978689;28;20050;-58
2023/03/19 01:21:05;;;;;;;28.50;15.52;;;;;;;;;;4995999;28;20081;-60
2023/03/19 01:23:36;;;;;;;26.15;16.02;;;;;;;;;;4978822;28;20469;-58
2023/03/19 01:26:04;;;;;;;28.30;16.95;;;;;;;;;;4994804;28;20039;-59
2023/03/19 01:28:31;;;;;;;28.30;16.83;;;;;;;;;;4996180;28;20069;-59
2023/03/19 01:31:00;;;;;;;27.00;15.80;;;;;;;;;;4979002;28;20428;-60
2023/03/19 01:33:32;;;;;;;28.75;15.63;;;;;;;;;;5000948;28;20050;-60
2023/03/19 01:36:10;;;;;;;27.58;15.98;;;;;;;;;;4981012;28;20534;-59
2023/03/19 01:38:50;;;;;;;26.92;15.05;;;;;;;;;;4978329;28;20050;-59
2023/03/19 01:41:18;;;;;;;23.08;14.63;;;;;;;;;;4978410;28;20097;-59
2023/03/19 01:43:47;;;;;;;24.33;15.40;;;;;;;;;;4994612;28;20046;-59
2023/03/19 01:46:37;;;;;;;23.35;15.13;;;;;;;;;;4978216;28;20042;-59
2023/03/19 01:49:27;;;;;;;27.88;15.25;;;;;;;;;;4994506;28;20054;-59
2023/03/19 01:52:18;;;;;;;26.73;14.77;;;;;;;;;;4992739;28;20082;-59
2023/03/19 01:55:18;;;;;;;25.27;14.75;;;;;;;;;;4976068;28;20077;-57
2023/03/19 01:58:06;;;;;;;24.27;14.35;;;;;;;;;;4996011;28;20061;-59
2023/03/19 02:00:52;;;;;;;24.13;14.32;;;;;;;;;;4995576;28;20053;-59
2023/03/19 02:03:21;;;;;;;24.40;13.85;;;;;;;;;;4994362;28;20061;-59
2023/03/19 02:05:52;;;;;;;24.85;15.00;;;;;;;;;;4994002;28;20043;-60
2023/03/19 02:08:21;;;;;;;23.10;14.38;;;;;;;;;;4977841;28;20085;-59
2023/03/19 02:10:50;;;;;;;27.30;13.35;;;;;;;;;;4977973;28;20070;-59
2023/03/19 02:13:17;;;;;;;25.30;14.10;;;;;;;;;;4977927;28;20105;-60
2023/03/19 02:15:45;;;;;;;21.45;13.43;;;;;;;;;;4994041;28;20050;-60
2023/03/19 02:18:13;;;;;;;21.40;13.27;;;;;;;;;;4995073;28;20374;-60
2023/03/19 02:20:58;;;;;;;21.83;13.95;;;;;;;;;;4993763;28;20093;-59
2023/03/19 02:23:41;;;;;;;16.37;10.57;;;;;;;;;;4977659;28;20677;-60
2023/03/19 02:26:18;;;;;;;21.80;14.02;;;;;;;;;;4995129;28;20046;-60
2023/03/19 02:28:49;;;;;;;22.05;13.10;;;;;;;;;;4993784;28;20046;-59
2023/03/19 02:31:22;;;;;;;21.23;13.20;;;;;;;;;;4977442;28;20066;-58
2023/03/19 02:34:01;;;;;;;18.92;13.30;;;;;;;;;;4993668;28;20496;-59
2023/03/19 02:36:41;;;;;;;20.30;12.80;;;;;;;;;;4977545;28;20057;-59
2023/03/19 02:39:13;;;;;;;21.75;12.65;;;;;;;;;;4993575;28;20077;-59
2023/03/19 02:41:41;;;;;;;22.42;12.88;;;;;;;;;;4977428;28;20050;-59
2023/03/19 02:44:10;;;;;;;22.27;13.13;;;;;;;;;;4993578;28;20129;-59
2023/03/19 02:46:38;;;;;;;19.90;12.30;;;;;;;;;;4977254;28;20052;-59
2023/03/19 02:49:06;;;;;;;23.08;12.45;;;;;;;;;;4994673;28;20048;-59
2023/03/19 02:51:33;;;;;;;21.08;12.50;;;;;;;;;;4994575;28;20038;-59
2023/03/19 02:54:01;;;;;;;23.23;13.30;;;;;;;;;;4993181;28;20047;-60
2023/03/19 02:56:28;;;;;;;21.58;13.48;;;;;;;;;;4976910;28;20096;-59
2023/03/19 02:58:56;;;;;;;20.92;13.18;;;;;;;;;;4976940;28;20050;-59
2023/03/19 03:01:23;;;;;;;22.65;13.57;;;;;;;;;;4993161;28;20046;-59
2023/03/19 03:03:51;;;;;;;22.95;13.15;;;;;;;;;;4976915;28;20073;-58
2023/03/19 03:06:18;;;;;;;22.25;13.43;;;;;;;;;;4976916;28;20038;-59
2023/03/19 03:08:46;;;;;;;20.70;12.38;;;;;;;;;;4994311;28;20504;-59
2023/03/19 03:11:13;;;;;;;23.42;13.43;;;;;;;;;;4976840;28;20042;-59
2023/03/19 03:13:41;;;;;;;28.98;14.05;;;;;;;;;;4976655;28;20042;-59
2023/03/19 03:16:08;;;;;;;25.30;13.82;;;;;;;;;;4993171;28;20326;-59
2023/03/19 03:18:36;;;;;;;21.70;13.50;;;;;;;;;;4985795;28;20042;-59
2023/03/19 03:21:04;;;;;;;23.17;13.60;;;;;;;;;;4994042;28;20054;-59
2023/03/19 03:23:31;;;;;;;23.33;13.98;;;;;;;;;;4976630;28;20050;-59
2023/03/19 03:25:59;;;;;;;23.17;13.93;;;;;;;;;;4976625;28;20085;-59
2023/03/19 03:28:27;;;;;;;25.52;14.18;;;;;;;;;;4994090;28;20049;-59
2023/03/19 03:30:58;;;;;;;24.80;14.35;;;;;;;;;;4992812;28;20035;-59
2023/03/19 03:33:26;;;;;;;25.02;13.90;;;;;;;;;;4992574;28;20096;-59
2023/03/19 03:35:54;;;;;;;23.23;13.45;;;;;;;;;;4992561;28;20467;-59
2023/03/19 03:38:22;;;;;;;24.40;14.25;;;;;;;;;;4992594;28;20046;-59
2023/03/19 03:40:51;;;;;;;26.10;14.55;;;;;;;;;;4976458;28;20073;-59
2023/03/19 03:43:22;;;;;;;24.98;14.38;;;;;;;;;;4976299;28;20386;-59
2023/03/19 03:45:50;;;;;;;26.63;16.48;;;;;;;;;;4976192;28;20050;-59
2023/03/19 03:48:17;;;;;;;27.05;16.13;;;;;;;;;;4992514;28;20046;-58
2023/03/19 03:50:45;;;;;;;22.10;14.43;;;;;;;;;;4976315;28;20053;-58
2023/03/19 03:53:17;;;;;;;27.52;15.82;;;;;;;;;;4992419;28;20042;-58
2023/03/19 03:55:44;;;;;;;23.40;15.25;;;;;;;;;;4976424;28;20129;-59
2023/03/19 03:58:12;;;;;;;23.58;14.65;;;;;;;;;;4992293;28;20046;-59
2023/03/19 04:00:40;;;;;;;24.15;14.60;;;;;;;;;;4976017;28;20408;-59
2023/03/19 04:03:07;;;;;;;25.50;15.20;;;;;;;;;;4992326;28;20046;-59
2023/03/19 04:05:36;;;;;;;25.50;15.77;;;;;;;;;;4993524;28;20492;-59
2023/03/19 04:08:05;;;;;;;28.02;15.65;;;;;;;;;;4992229;28;20064;-59
2023/03/19 04:10:35;;;;;;;28.73;16.40;;;;;;;;;;4976091;28;20042;-59
2023/03/19 04:13:03;;;;;;;26.42;16.33;;;;;;;;;;4992194;28;20049;-59
2023/03/19 04:15:31;;;;;;;26.25;16.63;;;;;;;;;;4992159;28;20046;-59
2023/03/19 04:17:59;;;;;;;29.10;16.70;;;;;;;;;;4975920;28;20097;-59
2023/03/19 04:20:27;;;;;;;27.15;17.73;;;;;;;;;;4993270;28;20054;-59
2023/03/19 04:22:54;;;;;;;28.73;16.60;;;;;;;;;;4975958;28;20622;-59
2023/03/19 04:25:22;;;;;;;30.30;17.42;;;;;;;;;;4993502;28;20073;-59
2023/03/19 04:27:51;;;;;;;26.83;16.33;;;;;;;;;;4976008;28;20543;-59
2023/03/19 04:30:19;;;;;;;28.42;16.33;;;;;;;;;;4993995;28;20534;-59
2023/03/19 04:32:46;;;;;;;26.85;16.50;;;;;;;;;;4997286;28;20039;-59
2023/03/19 04:35:17;;;;;;;28.52;17.15;;;;;;;;;;4996063;28;20050;-59
2023/03/19 04:37:47;;;;;;;25.05;15.65;;;;;;;;;;4979778;28;20046;-59
2023/03/19 04:40:17;;;;;;;29.25;17.50;;;;;;;;;;4979665;28;20046;-59
2023/03/19 04:42:45;;;;;;;30.10;21.15;;;;;;;;;;4979772;28;20594;-59
2023/03/19 04:45:25;;;;;;;36.30;19.80;;;;;;;;;;4995793;28;20050;-59
2023/03/19 04:47:52;;;;;;;34.65;18.63;;;;;;;;;;4979625;28;20052;-59
2023/03/19 04:50:20;;;;;;;31.73;18.90;;;;;;;;;;4995630;28;20047;-59
2023/03/19 04:52:48;;;;;;;33.47;19.48;;;;;;;;;;4979339;28;20046;-59
2023/03/19 04:55:16;;;;;;;25.17;14.27;;;;;;;;;;4979448;28;20492;-59
2023/03/19 04:57:53;;;;;;;27.38;16.50;;;;;;;;;;4979341;28;20044;-59
2023/03/19 05:00:26;;;;;;;23.70;14.07;;;;;;;;;;4995625;28;20050;-59
2023/03/19 05:02:54;;;;;;;21.88;14.07;;;;;;;;;;4979248;28;20163;-59
2023/03/19 05:05:22;;;;;;;21.10;13.75;;;;;;;;;;4995464;28;20057;-59
2023/03/19 05:07:50;;;;;;;22.73;14.25;;;;;;;;;;4979203;28;20386;-59
2023/03/19 05:10:17;;;;;;;18.98;13.65;;;;;;;;;;4995298;28;20100;-59
2023/03/19 05:12:45;;;;;;;34.80;21.27;;;;;;;;;;4979206;28;20121;-60
2023/03/19 05:15:16;;;;;;;62.33;33.28;;;;;;;;;;4995309;28;20049;-59
2023/03/19 05:17:57;;;;;;;74.95;36.13;;;;;;;;;;4978832;28;20129;-59
2023/03/19 05:20:30;;;;;;;40.97;23.55;;;;;;;;;;4994950;28;20054;-60
2023/03/19 05:23:05;;;;;;;33.65;21.35;;;;;;;;;;4995456;28;20042;-59
2023/03/19 05:25:41;;;;;;;30.27;18.83;;;;;;;;;;4978867;28;20050;-59
2023/03/19 05:28:12;;;;;;;29.00;17.55;;;;;;;;;;4978879;28;20065;-59
2023/03/19 05:30:41;;;;;;;28.38;17.33;;;;;;;;;;4995089;28;20509;-60
2023/03/19 05:33:17;;;;;;;24.33;15.35;;;;;;;;;;4979439;28;20129;-60
2023/03/19 05:35:45;;;;;;;22.80;14.77;;;;;;;;;;4981754;28;20042;-60
2023/03/19 05:38:22;;;;;;;24.33;13.88;;;;;;;;;;4979044;28;20061;-59
2023/03/19 05:41:05;;;;;;;19.73;13.57;;;;;;;;;;4994375;28;20082;-59
2023/03/19 05:43:52;;;;;;;21.40;13.82;;;;;;;;;;4978757;28;20463;-59
2023/03/19 05:46:37;;;;;;;20.03;13.67;;;;;;;;;;4994739;28;20056;-58
2023/03/19 05:49:05;;;;;;;18.85;13.07;;;;;;;;;;4978355;28;20051;-59
2023/03/19 05:51:33;;;;;;;19.50;13.07;;;;;;;;;;4995922;28;20038;-59
2023/03/19 05:54:00;;;;;;;19.48;12.27;;;;;;;;;;4978380;28;20053;-59
2023/03/19 05:56:36;;;;;;;16.98;12.80;;;;;;;;;;4978303;28;20042;-59
2023/03/19 05:59:30;;;;;;;17.95;12.85;;;;;;;;;;4994449;28;20415;-59
2023/03/19 06:02:27;;;;;;;16.33;12.05;;;;;;;;;;4982531;28;20493;-59
2023/03/19 06:05:10;;;;;;;16.75;12.07;;;;;;;;;;4978192;28;20449;-59
2023/03/19 06:07:38;;;;;;;17.00;11.68;;;;;;;;;;4978089;28;20504;-60
2023/03/19 06:10:12;;;;;;;16.20;12.32;;;;;;;;;;4978136;28;20042;-60
2023/03/19 06:12:40;;;;;;;16.83;12.13;;;;;;;;;;4995630;28;20039;-59
2023/03/19 06:15:26;;;;;;;15.15;11.52;;;;;;;;;;4995450;28;20057;-60
2023/03/19 06:18:08;;;;;;;13.73;11.18;;;;;;;;;;4994004;28;20120;-59
2023/03/19 06:20:35;;;;;;;13.35;10.40;;;;;;;;;;4966760;28;20051;-59
2023/03/19 06:23:03;;;;;;;16.05;11.25;;;;;;;;;;4974546;28;20054;-59
2023/03/19 06:25:30;;;;;;;15.82;11.32;;;;;;;;;;4993603;28;20058;-59
2023/03/19 06:27:58;;;;;;;12.48;10.70;;;;;;;;;;4977606;28;20046;-59
2023/03/19 06:30:35;;;;;;;13.40;10.80;;;;;;;;;;4993907;28;20050;-59
2023/03/19 06:33:08;;;;;;;12.93;10.50;;;;;;;;;;4977687;28;20080;-59
2023/03/19 06:35:35;;;;;;;12.88;10.52;;;;;;;;;;4966679;28;20497;-60
2023/03/19 06:38:03;;;;;;;13.63;11.27;;;;;;;;;;4974282;28;20046;-60
2023/03/19 06:40:30;;;;;;;13.55;12.13;;;;;;;;;;4994410;28;20042;-60
2023/03/19 06:42:58;;;;;;;20.23;16.02;;;;;;;;;;4994925;28;20591;-60
2023/03/19 06:45:26;;;;;;;27.05;20.30;;;;;;;;;;4993703;28;20038;-60
2023/03/19 06:47:54;;;;;;;45.65;32.00;;;;;;;;;;4977354;28;20053;-60
2023/03/19 06:50:22;;;;;;;38.00;25.30;;;;;;;;;;4994714;28;20489;-58
2023/03/19 06:52:50;;;;;;;23.05;17.70;;;;;;;;;;4993890;28;20050;-60
2023/03/19 06:55:19;;;;;;;17.35;12.40;;;;;;;;;;4994656;28;20084;-59
2023/03/19 06:57:49;;;;;;;14.48;12.05;;;;;;;;;;4994635;28;20042;-59
2023/03/19 07:00:18;;;;;;;13.30;11.05;;;;;;;;;;4994501;28;20436;-60
2023/03/19 07:02:45;;;;;;;13.13;11.23;;;;;;;;;;4994249;28;20105;-59
2023/03/19 07:05:13;;;;;;;12.15;10.90;;;;;;;;;;4994529;28;20046;-59
2023/03/19 07:07:40;;;;;;;12.90;11.35;;;;;;;;;;4994383;28;20086;-59
2023/03/19 07:10:08;;;;;;;14.60;12.45;;;;;;;;;;4994509;28;20041;-59
2023/03/19 07:12:36;;;;;;;13.35;10.32;;;;;;;;;;4986412;28;20046;-59
2023/03/19 07:15:03;;;;;;;14.05;11.18;;;;;;;;;;4994400;28;20047;-59
2023/03/19 07:17:31;;;;;;;14.02;11.38;;;;;;;;;;4994309;28;20118;-59
2023/03/19 07:19:58;;;;;;;13.50;11.10;;;;;;;;;;4993990;28;20061;-60
2023/03/19 07:22:27;;;;;;;14.20;10.85;;;;;;;;;;4994075;28;20520;-60
2023/03/19 07:24:54;;;;;;;12.90;11.45;;;;;;;;;;4994179;28;20497;-60
2023/03/19 07:27:22;;;;;;;17.83;11.85;;;;;;;;;;4994141;28;20121;-59
2023/03/19 07:29:49;;;;;;;13.35;11.90;;;;;;;;;;4994044;28;20046;-59
2023/03/19 07:32:17;;;;;;;13.55;11.98;;;;;;;;;;4994033;28;20050;-59
2023/03/19 07:34:44;;;;;;;14.70;13.18;;;;;;;;;;4993996;28;20046;-60
2023/03/19 07:37:12;;;;;;;17.20;13.20;;;;;;;;;;4994000;28;20485;-59
2023/03/19 07:39:39;;;;;;;15.75;13.82;;;;;;;;;;4993944;28;20452;-58
2023/03/19 07:42:07;;;;;;;16.75;14.23;;;;;;;;;;4993833;28;20038;-58
2023/03/19 07:44:38;;;;;;;20.60;16.83;;;;;;;;;;4992618;28;20374;-60
2023/03/19 07:47:06;;;;;;;23.83;17.00;;;;;;;;;;4993827;28;20077;-59
2023/03/19 07:49:53;;;;;;;24.67;17.25;;;;;;;;;;4993676;28;20046;-59
2023/03/19 07:52:20;;;;;;;22.92;16.25;;;;;;;;;;4993767;28;20104;-59
2023/03/19 07:54:49;;;;;;;23.58;16.65;;;;;;;;;;4993671;28;20074;-59
2023/03/19 07:57:16;;;;;;;23.13;16.00;;;;;;;;;;4993691;28;20042;-59
2023/03/19 07:59:44;;;;;;;22.60;15.63;;;;;;;;;;4993557;28;20493;-59
2023/03/19 08:02:12;;;;;;;23.23;15.50;;;;;;;;;;4976069;28;20046;-59
2023/03/19 08:04:40;;;;;;;22.80;15.40;;;;;;;;;;4993362;28;20546;-59
2023/03/19 08:07:11;;;;;;;24.55;15.93;;;;;;;;;;4993563;28;20096;-59
2023/03/19 08:09:39;;;;;;;27.48;18.42;;;;;;;;;;4986076;28;20054;-59
2023/03/19 08:12:07;;;;;;;27.38;16.70;;;;;;;;;;4993407;28;20444;-59
2023/03/19 08:14:34;;;;;;;26.92;19.13;;;;;;;;;;4993457;28;20120;-59
2023/03/19 08:17:02;;;;;;;22.58;15.40;;;;;;;;;;4993521;28;20042;-60
2023/03/19 08:19:30;;;;;;;28.23;16.38;;;;;;;;;;4993533;28;20042;-59
2023/03/19 08:21:58;;;;;;;27.23;17.65;;;;;;;;;;4993363;28;20566;-59
2023/03/19 08:24:26;;;;;;;28.17;17.65;;;;;;;;;;4993442;28;20096;-59
2023/03/19 08:26:53;;;;;;;25.55;16.45;;;;;;;;;;4993759;28;20059;-60
2023/03/19 08:29:21;;;;;;;24.52;15.57;;;;;;;;;;4976312;28;20042;-59
2023/03/19 08:31:48;;;;;;;24.98;16.63;;;;;;;;;;4993240;28;20117;-59
2023/03/19 08:34:16;;;;;;;25.55;18.63;;;;;;;;;;4993166;28;20039;-59
2023/03/19 08:36:43;;;;;;;29.02;18.50;;;;;;;;;;4993317;28;20105;-59
2023/03/19 08:39:10;;;;;;;26.00;17.15;;;;;;;;;;4993752;28;20039;-59
2023/03/19 08:41:38;;;;;;;26.52;16.67;;;;;;;;;;4993230;28;20125;-60
2023/03/19 08:44:05;;;;;;;26.98;17.25;;;;;;;;;;4993279;28;20642;-58
2023/03/19 08:46:33;;;;;;;27.90;18.10;;;;;;;;;;4993446;28;20101;-58
2023/03/19 08:49:00;;;;;;;32.63;20.48;;;;;;;;;;4993167;28;20053;-58
2023/03/19 08:51:30;;;;;;;24.92;17.05;;;;;;;;;;4993145;28;20390;-58
2023/03/19 08:53:57;;;;;;;28.42;18.40;;;;;;;;;;4993154;28;20042;-58
2023/03/19 08:56:25;;;;;;;26.95;18.02;;;;;;;;;;4993372;28;20428;-58
2023/03/19 08:58:52;;;;;;;25.75;16.55;;;;;;;;;;4993050;28;20053;-58
2023/03/19 09:01:20;;;;;;;24.13;17.90;;;;;;;;;;4992982;28;20087;-58
2023/03/19 09:03:47;;;;;;;28.08;19.45;;;;;;;;;;4993015;28;20047;-58
2023/03/19 09:06:15;;;;;;;23.58;16.73;;;;;;;;;;4993152;28;20043;-58
2023/03/19 09:08:43;;;;;;;27.92;18.55;;;;;;;;;;4975624;28;20062;-59
2023/03/19 09:11:11;;;;;;;27.73;17.40;;;;;;;;;;4992941;28;20468;-59
2023/03/19 09:13:38;;;;;;;28.42;17.50;;;;;;;;;;4992980;28;20392;-60
2023/03/19 09:16:06;;;;;;;24.60;16.98;;;;;;;;;;4994022;28;20121;-59
2023/03/19 09:18:34;;;;;;;24.88;17.73;;;;;;;;;;4996424;28;20038;-59
2023/03/19 09:21:02;;;;;;;32.13;20.10;;;;;;;;;;4996221;28;20115;-60
2023/03/19 09:23:29;;;;;;;30.52;18.83;;;;;;;;;;4996680;28;20169;-60
2023/03/19 09:25:57;;;;;;;30.80;18.73;;;;;;;;;;4996429;28;20492;-61
2023/03/19 09:28:24;;;;;;;27.60;18.75;;;;;;;;;;4995303;28;20046;-59
2023/03/19 09:30:52;;;;;;;23.85;17.40;;;;;;;;;;4996379;28;20034;-60
2023/03/19 09:33:20;;;;;;;24.70;16.35;;;;;;;;;;4996170;28;20543;-58
2023/03/19 09:35:51;;;;;;;26.40;16.98;;;;;;;;;;4996137;28;20039;-60
2023/03/19 09:38:20;;;;;;;23.90;16.60;;;;;;;;;;4996187;28;20042;-60
2023/03/19 09:40:49;;;;;;;24.83;16.20;;;;;;;;;;4996052;28;20124;-60
2023/03/19 09:43:16;;;;;;;24.73;15.55;;;;;;;;;;4996061;28;20039;-59
2023/03/19 09:45:45;;;;;;;27.33;16.48;;;;;;;;;;4995839;28;20046;-59
2023/03/19 09:48:16;;;;;;;26.77;18.73;;;;;;;;;;4995865;28;20538;-60
2023/03/19 09:50:45;;;;;;;26.30;17.38;;;;;;;;;;4995768;28;20129;-60
2023/03/19 09:53:13;;;;;;;26.27;16.45;;;;;;;;;;4995703;28;20501;-60
2023/03/19 09:55:46;;;;;;;23.65;15.57;;;;;;;;;;4995732;28;20042;-60
2023/03/19 09:58:16;;;;;;;23.10;15.80;;;;;;;;;;4995756;28;20392;-60
2023/03/19 10:00:46;;;;;;;25.77;17.25;;;;;;;;;;4978139;28;20416;-59
2023/03/19 10:03:20;;;;;;;25.17;17.30;;;;;;;;;;4995875;28;20042;-59
2023/03/19 10:06:00;;;;;;;32.28;22.92;;;;;;;;;;4995607;28;20050;-59
2023/03/19 10:08:31;;;;;;;29.83;19.50;;;;;;;;;;4995544;28;20045;-59
2023/03/19 10:10:59;;;;;;;35.33;22.20;;;;;;;;;;4995570;28;20042;-59
2023/03/19 10:13:45;;;;;;;23.98;16.92;;;;;;;;;;4994306;28;20432;-59
2023/03/19 10:16:16;;;;;;;24.45;16.08;;;;;;;;;;4995460;28;20078;-59
2023/03/19 10:18:46;;;;;;;24.67;16.63;;;;;;;;;;4995603;28;20142;-59
2023/03/19 10:21:34;;;;;;;23.88;15.70;;;;;;;;;;4995008;28;20058;-59
2023/03/19 10:24:04;;;;;;;24.50;16.02;;;;;;;;;;4995257;28;20046;-59
2023/03/19 10:26:35;;;;;;;25.35;17.20;;;;;;;;;;4995213;28;20105;-60
2023/03/19 10:29:05;;;;;;;27.30;16.45;;;;;;;;;;4995247;28;20038;-59
2023/03/19 10:31:39;;;;;;;26.17;17.75;;;;;;;;;;4995385;28;20424;-60
2023/03/19 10:34:06;;;;;;;23.83;16.45;;;;;;;;;;4994964;28;20401;-59
2023/03/19 10:36:35;;;;;;;25.45;16.60;;;;;;;;;;4995066;28;20066;-59
2023/03/19 10:39:05;;;;;;;27.67;17.33;;;;;;;;;;4994956;28;20042;-59
2023/03/19 10:41:51;;;;;;;30.65;19.25;;;;;;;;;;4993747;28;20058;-60
2023/03/19 10:44:29;;;;;;;45.42;28.33;;;;;;;;;;4994811;28;20042;-60
2023/03/19 10:47:09;;;;;;;28.45;17.52;;;;;;;;;;4994743;28;20034;-60
2023/03/19 10:49:37;;;;;;;22.60;16.48;;;;;;;;;;4986919;28;20053;-60
2023/03/19 10:52:05;;;;;;;22.98;15.80;;;;;;;;;;4994530;28;20038;-60
2023/03/19 10:54:32;;;;;;;24.85;16.55;;;;;;;;;;4995903;28;20105;-59
2023/03/19 10:57:00;;;;;;;25.58;18.90;;;;;;;;;;4996157;28;20518;-59
2023/03/19 10:59:32;;;;;;;25.50;17.98;;;;;;;;;;4976985;28;20061;-59
2023/03/19 11:02:15;;;;;;;54.72;33.67;;;;;;;;;;4994441;28;20053;-59
2023/03/19 11:04:42;;;;;;;26.60;17.58;;;;;;;;;;4994339;28;20045;-59
2023/03/19 11:07:11;;;;;;;28.30;19.02;;;;;;;;;;4994295;28;20046;-58
2023/03/19 11:09:39;;;;;;;38.33;24.88;;;;;;;;;;4994167;28;20100;-59
2023/03/19 11:12:07;;;;;;;29.90;19.63;;;;;;;;;;4994210;28;20042;-59
2023/03/19 11:14:36;;;;;;;26.75;16.38;;;;;;;;;;4994355;28;20042;-59
2023/03/19 11:17:06;;;;;;;27.50;18.42;;;;;;;;;;4994303;28;20046;-59
2023/03/19 11:19:40;;;;;;;21.88;14.95;;;;;;;;;;4994162;28;20049;-59
2023/03/19 11:22:08;;;;;;;22.10;15.20;;;;;;;;;;4993921;28;20470;-59
2023/03/19 11:24:39;;;;;;;23.35;15.50;;;;;;;;;;4994125;28;20054;-59
2023/03/19 11:27:08;;;;;;;24.90;16.63;;;;;;;;;;4994086;28;20042;-59
2023/03/19 11:29:39;;;;;;;22.95;16.00;;;;;;;;;;4986402;28;20074;-59
2023/03/19 11:32:16;;;;;;;26.50;17.63;;;;;;;;;;4994078;28;20448;-59
2023/03/19 11:34:52;;;;;;;32.10;22.20;;;;;;;;;;4993947;28;20050;-59
2023/03/19 11:37:21;;;;;;;27.63;19.70;;;;;;;;;;4992856;28;20109;-59
2023/03/19 11:39:48;;;;;;;28.50;19.35;;;;;;;;;;4993490;28;20389;-59
2023/03/19 11:42:31;;;;;;;23.10;15.13;;;;;;;;;;4993935;28;20046;-59
2023/03/19 11:45:17;;;;;;;22.25;15.18;;;;;;;;;;4993834;28;20059;-59
2023/03/19 11:47:52;;;;;;;21.67;14.90;;;;;;;;;;4992759;28;20053;-59
2023/03/19 11:50:26;;;;;;;22.00;14.88;;;;;;;;;;4993631;28;20046;-59
2023/03/19 11:53:09;;;;;;;26.13;15.65;;;;;;;;;;4993748;28;20173;-59
2023/03/19 11:55:50;;;;;;;22.50;15.38;;;;;;;;;;4976272;28;20060;-59
2023/03/19 11:58:43;;;;;;;26.33;17.05;;;;;;;;;;4993719;28;20488;-59
2023/03/19 12:01:20;;;;;;;28.55;19.38;;;;;;;;;;4991918;28;20058;-59
2023/03/19 12:04:00;;;;;;;30.50;21.63;;;;;;;;;;4993540;28;20038;-59
2023/03/19 12:06:28;;;;;;;31.10;19.08;;;;;;;;;;4993563;28;20042;-59
2023/03/19 12:09:11;;;;;;;27.73;18.25;;;;;;;;;;4993892;28;20397;-59
2023/03/19 12:11:45;;;;;;;25.67;16.10;;;;;;;;;;4993594;28;20294;-59
2023/03/19 12:14:22;;;;;;;23.67;15.88;;;;;;;;;;4993626;28;20126;-59
2023/03/19 12:16:49;;;;;;;21.23;15.25;;;;;;;;;;4993528;28;20043;-59
2023/03/19 12:19:27;;;;;;;23.55;15.85;;;;;;;;;;4993454;28;20069;-59
2023/03/19 12:22:00;;;;;;;21.65;14.77;;;;;;;;;;4993120;28;20108;-59
2023/03/19 12:24:28;;;;;;;22.02;14.73;;;;;;;;;;4993497;28;20527;-59
2023/03/19 12:26:56;;;;;;;40.15;23.17;;;;;;;;;;4993313;28;20115;-59
2023/03/19 12:29:29;;;;;;;26.05;16.95;;;;;;;;;;4993377;28;20397;-59
2023/03/19 12:31:57;;;;;;;31.75;21.15;;;;;;;;;;4993295;28;20485;-59
2023/03/19 12:34:37;;;;;;;27.48;21.40;;;;;;;;;;4993269;28;20046;-59
2023/03/19 12:37:20;;;;;;;26.83;18.17;;;;;;;;;;4993327;28;20093;-59
2023/03/19 12:39:54;;;;;;;24.27;14.15;;;;;;;;;;4993291;28;20105;-59
2023/03/19 12:42:27;;;;;;;18.98;12.70;;;;;;;;;;4993312;28;20051;-59
2023/03/19 12:44:58;;;;;;;17.90;12.63;;;;;;;;;;4993094;28;20043;-59
2023/03/19 12:47:29;;;;;;;20.30;12.80;;;;;;;;;;4993222;28;20054;-59
2023/03/19 12:50:00;;;;;;;22.30;15.80;;;;;;;;;;4993182;28;20092;-59
2023/03/19 12:52:34;;;;;;;19.10;13.52;;;;;;;;;;4996660;28;20101;-59
2023/03/19 12:55:20;;;;;;;25.63;15.27;;;;;;;;;;4996834;28;20050;-59
2023/03/19 12:57:53;;;;;;;18.90;12.80;;;;;;;;;;4996727;28;20046;-59
2023/03/19 13:00:41;;;;;;;19.45;13.60;;;;;;;;;;4996971;28;20089;-59
2023/03/19 13:03:17;;;;;;;19.15;12.55;;;;;;;;;;4989914;28;20061;-59
2023/03/19 13:05:54;;;;;;;18.23;12.65;;;;;;;;;;4996647;28;20045;-59
2023/03/19 13:08:24;;;;;;;18.88;12.30;;;;;;;;;;4996627;28;20046;-60
2023/03/19 13:10:52;;;;;;;19.10;11.88;;;;;;;;;;4996798;28;20418;-59
2023/03/19 13:13:28;;;;;;;15.95;11.93;;;;;;;;;;4995301;28;20109;-59
2023/03/19 13:15:57;;;;;;;20.58;13.27;;;;;;;;;;4996425;28;20108;-59
2023/03/19 13:18:28;;;;;;;16.85;11.77;;;;;;;;;;4996375;28;20042;-59
2023/03/19 13:21:05;;;;;;;16.48;11.65;;;;;;;;;;4995938;28;20050;-59
2023/03/19 13:23:35;;;;;;;17.58;13.13;;;;;;;;;;4994780;28;20409;-60
2023/03/19 13:26:04;;;;;;;18.10;12.20;;;;;;;;;;4996254;28;20526;-60
2023/03/19 13:28:33;;;;;;;18.60;11.75;;;;;;;;;;4996299;28;20047;-58
2023/03/19 13:31:04;;;;;;;21.40;14.18;;;;;;;;;;4996130;28;20042;-58
2023/03/19 13:33:39;;;;;;;17.08;11.57;;;;;;;;;;4996004;28;20046;-59
2023/03/19 13:36:08;;;;;;;16.63;12.30;;;;;;;;;;4996182;28;20456;-60
2023/03/19 13:38:38;;;;;;;20.15;13.77;;;;;;;;;;4988155;28;20072;-60
2023/03/19 13:41:06;;;;;;;15.50;10.57;;;;;;;;;;4996282;28;20429;-60
2023/03/19 13:43:33;;;;;;;16.23;10.60;;;;;;;;;;4997153;28;20042;-59
2023/03/19 13:46:14;;;;;;;17.20;11.35;;;;;;;;;;4997672;28;20050;-59
2023/03/19 13:48:45;;;;;;;15.85;10.25;;;;;;;;;;4995847;28;20038;-59
2023/03/19 13:51:15;;;;;;;15.48;10.55;;;;;;;;;;4995755;28;20129;-59
2023/03/19 13:53:53;;;;;;;15.70;10.48;;;;;;;;;;4995910;28;20396;-59
2023/03/19 13:56:22;;;;;;;15.15;10.13;;;;;;;;;;4995787;28;20129;-59
2023/03/19 13:59:14;;;;;;;13.23;9.50;;;;;;;;;;4995829;28;20038;-59
2023/03/19 14:01:46;;;;;;;;;;;;;;;;;;4995566;28;20149;-57
2023/03/19 14:04:19;;;;;;;13.75;9.15;;;;;;;;;;4995646;28;19922;-58
2023/03/19 14:06:49;;;;;;;13.75;10.07;;;;;;;;;;4995525;28;20047;-58
2023/03/19 14:09:35;;;;;;;14.48;9.70;;;;;;;;;;4995605;28;20042;-58
2023/03/19 14:12:10;;;;;;;15.27;10.05;;;;;;;;;;4995447;28;20117;-58
2023/03/19 14:14:40;;;;;;;12.68;9.52;;;;;;;;;;4995415;28;20046;-58
2023/03/19 14:17:14;;;;;;;13.23;9.20;;;;;;;;;;4995349;28;20038;-59
2023/03/19 14:19:42;;;;;;;16.55;8.85;;;;;;;;;;4995720;28;20401;-58
2023/03/19 14:22:18;;;;;;;15.50;9.15;;;;;;;;;;4994713;28;20054;-58
2023/03/19 14:25:01;;;;;;;10.88;7.93;;;;;;;;;;4995149;28;20046;-58
2023/03/19 14:27:31;;;;;;;14.80;8.13;;;;;;;;;;4995100;28;20492;-58
2023/03/19 14:30:02;;;;;;;10.88;8.20;;;;;;;;;;4995103;28;20056;-59
2023/03/19 14:32:39;;;;;;;12.80;8.50;;;;;;;;;;4995011;28;20449;-59
2023/03/19 14:35:08;;;;;;;10.65;8.13;;;;;;;;;;4995005;28;20057;-58
2023/03/19 14:37:38;;;;;;;11.75;8.48;;;;;;;;;;4994919;28;20096;-59
2023/03/19 14:40:12;;;;;;;14.82;10.50;;;;;;;;;;4994933;28;20117;-58
2023/03/19 14:42:43;;;;;;;15.45;9.60;;;;;;;;;;4994884;28;20046;-58